Impacts METAR Board
IDs:

KTME - Houston/Executive Ar, TX, US

Updated at: 0000 UTC 30 May 2020
Potential Impact None Slight Moderate High
Time 29/12Z 29/13Z 29/14Z 29/15Z 29/16Z 29/17Z 29/18Z 29/19Z 29/20Z 29/21Z 29/22Z 29/23Z 30/00Z
Temp70 73 77 79 81 82 84 84 84 86 86 84 82
Dewpt70 73 72 70 68 68 68 66 66 66 66 68 68
Altim30.06 30.06 30.06 30.07 30.06 30.06 30.07 30.08 30.07 30.04 30.04 30.02 30.02
VIS3 6 10 10 10 10 10 10 10 10 10 10 10
CIG-- -- -- -- -- -- -- -- -- -- -- -- --
CoverCLRCLRCLRCLRCLRCLRSCTFEWFEWFEWSCTFEWCLR
FltCatMVFRVFRVFRVFRVFRVFRVFRVFRVFRVFRVFRVFRVFR
WXBRBR----------------------
WDir010102035030101020101036010
WSpd0 6 11 9 11 11 10 6 10 11 9 9 8
WGst-- -- -- -- 16 -- -- 11 -- -- -- 14 --
Raw hourly METARs
KTME 291155Z AUTO 00000KT 3SM BR CLR 21/21 A3006 RMK AO2
KTME 291255Z AUTO 01006KT 6SM BR CLR 23/23 A3006 RMK AO2
KTME 291355Z AUTO 01011KT 10SM CLR 25/22 A3006 RMK AO2
KTME 291455Z AUTO 02009KT 10SM CLR 26/21 A3007 RMK AO2
KTME 291555Z AUTO 35011G16KT 10SM CLR 27/20 A3006 RMK AO2
KTME 291655Z AUTO 03011KT 10SM CLR 28/20 A3006 RMK AO2
KTME 291755Z AUTO 01010KT 10SM SCT039 29/20 A3007 RMK AO2
KTME 291855Z AUTO 01006G11KT 10SM FEW043 FEW049 29/19 A3008 RMK AO2
KTME 291955Z AUTO 02010KT 10SM FEW046 FEW050 29/19 A3007 RMK AO2
KTME 292055Z AUTO 01011KT 10SM FEW049 30/19 A3004 RMK AO2
KTME 292155Z AUTO 01009KT 10SM FEW050 SCT060 30/19 A3004 RMK AO2
KTME 292255Z AUTO 36009G14KT 10SM FEW050 29/20 A3002 RMK AO2
KTME 292355Z AUTO 01008KT 10SM CLR 28/20 A3002 RMK AO2